createdAt,value
2022-10-11T00:03:05.915Z,13.87
2022-10-11T00:08:08.558Z,13.85
2022-10-11T00:13:12.488Z,13.90
2022-10-11T00:18:15.092Z,13.91
2022-10-11T00:23:18.028Z,13.85
2022-10-11T00:28:22.072Z,13.85
2022-10-11T00:33:24.900Z,13.81
2022-10-11T00:38:27.802Z,13.79
2022-10-11T00:43:33.125Z,13.75
2022-10-11T00:48:41.333Z,13.71
2022-10-11T00:53:44.737Z,13.70
2022-10-11T00:58:48.787Z,13.65
2022-10-11T01:03:51.555Z,13.65
2022-10-11T01:08:54.762Z,13.57
2022-10-11T01:14:16.028Z,13.60
2022-10-11T01:19:30.263Z,13.62
2022-10-11T01:24:49.977Z,13.58
2022-10-11T01:30:02.729Z,13.57
2022-10-11T01:35:10.862Z,13.36
2022-10-11T01:40:15.601Z,13.27
2022-10-11T01:45:19.931Z,13.11
2022-10-11T01:50:39.013Z,12.89
2022-10-11T01:55:48.088Z,12.74
2022-10-11T02:00:53.362Z,12.74
2022-10-11T02:06:01.138Z,12.67
2022-10-11T02:11:09.954Z,12.58
2022-10-11T02:16:14.393Z,12.57
2022-10-11T02:21:20.773Z,12.56
2022-10-11T02:26:24.547Z,12.58
2022-10-11T02:31:27.329Z,12.44
2022-10-11T02:36:37.704Z,12.43
2022-10-11T02:41:43.047Z,12.49
2022-10-11T02:46:46.626Z,12.47
2022-10-11T02:51:50.587Z,12.45
2022-10-11T02:56:53.286Z,12.34
2022-10-11T03:01:55.956Z,12.00
2022-10-11T03:06:59.965Z,12.04
2022-10-11T03:12:02.584Z,12.09
2022-10-11T03:17:31.080Z,11.93
2022-10-11T03:22:29.263Z,11.86
2022-10-11T03:27:31.915Z,11.87
2022-10-11T03:32:34.634Z,11.79
2022-10-11T03:37:38.749Z,11.68
2022-10-11T03:42:41.397Z,11.60
2022-10-11T03:47:44.063Z,11.59
2022-10-11T03:52:48.033Z,11.50
2022-10-11T03:57:50.787Z,11.38
2022-10-11T04:02:53.430Z,11.23
2022-10-11T04:07:57.391Z,11.03
2022-10-11T04:13:00.017Z,10.90
2022-10-11T04:18:02.615Z,10.83
2022-10-11T04:23:06.727Z,10.73
2022-10-11T04:28:09.637Z,10.71
2022-10-11T04:33:12.290Z,10.66
2022-10-11T04:38:16.241Z,10.58
2022-10-11T04:43:18.996Z,10.48
2022-10-11T04:48:21.619Z,10.40
2022-10-11T04:53:25.715Z,10.29
2022-10-11T04:58:28.653Z,10.23
2022-10-11T05:03:31.497Z,10.16
2022-10-11T05:08:35.521Z,10.10
2022-10-11T05:13:38.649Z,10.07
2022-10-11T05:18:41.560Z,10.03
2022-10-11T05:23:45.985Z,9.99
2022-10-11T05:28:48.971Z,9.91
2022-10-11T05:33:51.658Z,9.85
2022-10-11T05:38:55.622Z,9.88
2022-10-11T05:43:58.262Z,9.87
2022-10-11T05:49:00.958Z,9.78
2022-10-11T05:54:05.089Z,9.78
2022-10-11T05:59:07.730Z,9.82
2022-10-11T06:04:11.755Z,9.83
2022-10-11T06:09:15.775Z,9.86
2022-10-11T06:14:18.841Z,9.94
2022-10-11T06:19:21.475Z,10.03
2022-10-11T06:24:25.912Z,9.98
2022-10-11T06:29:28.524Z,10.03
2022-10-11T06:34:31.121Z,10.18
2022-10-11T06:39:35.216Z,10.32
2022-10-11T06:44:37.889Z,10.45
2022-10-11T06:49:40.505Z,10.56
2022-10-11T06:54:45.613Z,10.67
2022-10-11T06:59:48.252Z,10.79
2022-10-11T07:04:50.855Z,10.87
2022-10-11T07:09:54.839Z,10.96
2022-10-11T07:14:57.435Z,10.93
2022-10-11T07:20:00.053Z,10.99
2022-10-11T07:25:04.482Z,11.16
2022-10-11T07:30:08.508Z,11.31
2022-10-11T07:35:11.193Z,11.32
2022-10-11T07:40:15.250Z,11.40
2022-10-11T07:45:18.011Z,11.40
2022-10-11T07:50:20.920Z,11.44
2022-10-11T07:55:25.584Z,11.45
2022-10-11T08:00:28.228Z,11.51
2022-10-11T08:05:31.202Z,11.57
2022-10-11T08:10:39.422Z,11.66
2022-10-11T08:15:42.292Z,11.75
2022-10-11T08:20:45.743Z,11.84
2022-10-11T08:25:49.736Z,11.97
2022-10-11T08:30:53.708Z,11.99
2022-10-11T08:35:57.370Z,12.06
2022-10-11T08:41:02.346Z,12.14
2022-10-11T08:46:05.809Z,12.26
2022-10-11T08:51:16.298Z,12.30
2022-10-11T08:56:21.389Z,12.40
2022-10-11T09:01:25.988Z,12.40
2022-10-11T09:06:37.691Z,12.45
2022-10-11T09:11:53.010Z,12.54
2022-10-11T09:17:03.358Z,12.64
2022-10-11T09:22:09.462Z,12.72
2022-10-11T09:27:25.903Z,12.83
2022-10-11T09:32:41.779Z,12.96
2022-10-11T09:37:51.744Z,13.15
2022-10-11T09:42:55.900Z,13.06
2022-10-11T09:48:01.219Z,13.16
2022-10-11T09:53:07.586Z,13.29
2022-10-11T09:58:27.837Z,13.69
2022-10-11T10:03:32.376Z,13.83
2022-10-11T10:08:35.533Z,13.87
2022-10-11T10:13:47.863Z,14.00
2022-10-11T10:18:53.261Z,14.40
2022-10-11T10:23:56.642Z,14.60
2022-10-11T10:29:04.857Z,14.86
2022-10-11T10:34:13.664Z,15.14
2022-10-11T10:39:22.585Z,15.19
2022-10-11T10:44:26.719Z,15.28
2022-10-11T10:49:53.216Z,15.52
2022-10-11T10:55:00.589Z,15.84
2022-10-11T11:00:12.249Z,16.31
2022-10-11T11:05:22.992Z,16.25
2022-10-11T11:10:29.873Z,15.38
2022-10-11T11:15:38.316Z,14.88
2022-10-11T11:20:53.381Z,15.69
2022-10-11T11:26:03.910Z,17.20
2022-10-11T11:31:14.807Z,24.74
2022-10-11T11:36:20.155Z,31.66
2022-10-11T11:41:24.423Z,31.71
2022-10-11T11:46:31.044Z,25.60
2022-10-11T11:51:35.409Z,22.90
2022-10-11T11:56:48.949Z,24.37
2022-10-11T12:02:02.919Z,27.74
2022-10-11T12:07:16.669Z,33.38
2022-10-11T12:12:33.785Z,35.87
2022-10-11T12:18:01.031Z,37.71
2022-10-11T12:23:05.469Z,35.12
2022-10-11T12:28:48.647Z,32.42
2022-10-11T12:34:03.984Z,30.97
2022-10-11T12:39:54.559Z,29.01
2022-10-11T12:45:25.931Z,27.19
2022-10-11T12:50:34.866Z,26.50
2022-10-11T12:55:50.834Z,25.69
2022-10-11T13:01:24.341Z,24.93
2022-10-11T13:06:30.987Z,24.26
2022-10-11T13:11:35.975Z,22.69
2022-10-11T13:17:00.334Z,21.63
2022-10-11T13:22:06.662Z,20.56
2022-10-11T13:27:17.165Z,20.14
2022-10-11T13:32:23.874Z,19.78
2022-10-11T13:37:29.390Z,19.44
2022-10-11T13:42:33.065Z,18.97
2022-10-11T13:47:36.189Z,19.01
2022-10-11T13:52:53.757Z,18.95
2022-10-11T13:57:57.981Z,18.41
2022-10-11T14:03:03.711Z,17.87
2022-10-11T14:08:19.121Z,17.45
2022-10-11T14:13:25.043Z,17.33
2022-10-11T14:18:40.257Z,17.15
2022-10-11T14:23:44.193Z,17.10
2022-10-11T14:28:47.231Z,17.08
2022-10-11T14:33:49.905Z,17.07
2022-10-11T14:38:54.278Z,16.91
2022-10-11T14:43:57.819Z,16.56
2022-10-11T14:49:00.579Z,16.35
2022-10-11T14:54:04.806Z,16.20
2022-10-11T14:59:07.629Z,16.02
2022-10-11T15:04:10.322Z,15.91
2022-10-11T15:09:14.515Z,15.81
2022-10-11T15:14:17.871Z,15.84
2022-10-11T15:19:22.303Z,15.99
2022-10-11T15:24:27.871Z,15.89
2022-10-11T15:29:30.545Z,16.30
2022-10-11T15:34:33.194Z,16.15
2022-10-11T15:39:37.181Z,16.39
2022-10-11T15:44:39.829Z,18.13
2022-10-11T15:49:42.624Z,17.94
2022-10-11T15:54:46.552Z,16.92
2022-10-11T15:59:49.415Z,15.89
2022-10-11T16:04:54.001Z,15.32
2022-10-11T16:09:58.083Z,14.82
2022-10-11T16:15:00.701Z,14.47
2022-10-11T16:20:06.216Z,14.18
2022-10-11T16:25:10.504Z,13.99
2022-10-11T16:30:14.797Z,13.74
2022-10-11T16:35:18.031Z,13.56
2022-10-11T16:40:22.110Z,13.33
2022-10-11T16:45:24.973Z,13.15
2022-10-11T16:50:27.853Z,13.03
2022-10-11T16:55:31.855Z,12.87
2022-10-11T17:00:34.587Z,12.75
2022-10-11T17:05:37.673Z,12.63
2022-10-11T17:10:44.341Z,12.50
2022-10-11T17:15:47.095Z,12.40
2022-10-11T17:20:49.818Z,12.30
2022-10-11T17:25:54.115Z,12.26
2022-10-11T17:30:57.580Z,12.11
2022-10-11T17:36:01.512Z,11.99
2022-10-11T17:41:08.140Z,11.91
2022-10-11T17:46:12.853Z,11.87
2022-10-11T17:51:18.053Z,11.72
2022-10-11T17:56:28.153Z,11.60
2022-10-11T18:01:32.363Z,11.55
2022-10-11T18:06:39.270Z,11.48
2022-10-11T18:11:43.485Z,11.44
2022-10-11T18:16:46.544Z,11.29
2022-10-11T18:21:49.254Z,11.28
2022-10-11T18:26:53.226Z,11.23
2022-10-11T18:31:55.880Z,11.19
2022-10-11T18:36:58.640Z,11.08
2022-10-11T18:42:04.440Z,11.02
2022-10-11T18:47:07.082Z,10.97
2022-10-11T18:52:09.715Z,10.88
2022-10-11T18:57:13.664Z,10.77
2022-10-11T19:02:16.308Z,10.72
2022-10-11T19:07:19.011Z,10.66
2022-10-11T19:12:22.977Z,10.59
2022-10-11T19:17:25.782Z,10.66
2022-10-11T19:22:28.446Z,10.58
2022-10-11T19:27:32.418Z,10.39
2022-10-11T19:32:35.066Z,10.29
2022-10-11T19:37:37.875Z,10.25
2022-10-11T19:42:41.827Z,10.19
2022-10-11T19:47:44.609Z,10.10
2022-10-11T19:52:47.422Z,10.06
2022-10-11T19:57:51.415Z,10.04
2022-10-11T20:02:54.169Z,9.95
2022-10-11T20:07:56.921Z,9.90
2022-10-11T20:13:00.983Z,9.83
2022-10-11T20:18:03.781Z,9.79
2022-10-11T20:23:06.456Z,9.70
2022-10-11T20:28:10.590Z,9.72
2022-10-11T20:33:13.303Z,9.71
2022-10-11T20:38:15.903Z,9.58
2022-10-11T20:43:19.915Z,9.51
2022-10-11T20:48:22.554Z,9.48
2022-10-11T20:53:25.802Z,9.42
2022-10-11T20:58:29.910Z,9.34
2022-10-11T21:03:32.514Z,9.33
2022-10-11T21:08:36.008Z,9.29
2022-10-11T21:13:40.040Z,9.26
2022-10-11T21:18:43.319Z,9.28
2022-10-11T21:23:47.238Z,9.30
2022-10-11T21:28:51.273Z,9.15
2022-10-11T21:33:54.014Z,9.05
2022-10-11T21:38:57.641Z,8.99
2022-10-11T21:44:01.759Z,8.97
2022-10-11T21:49:04.459Z,8.92
2022-10-11T21:54:07.116Z,8.86
2022-10-11T21:59:12.552Z,8.80
2022-10-11T22:04:15.806Z,8.77
2022-10-11T22:09:18.490Z,8.72
2022-10-11T22:14:22.635Z,8.68
2022-10-11T22:19:25.578Z,8.59
2022-10-11T22:24:29.091Z,8.53
2022-10-11T22:29:34.354Z,8.55
2022-10-11T22:34:37.155Z,8.55
2022-10-11T22:39:39.748Z,8.49
2022-10-11T22:44:43.735Z,8.37
2022-10-11T22:49:46.395Z,8.29
2022-10-11T22:54:49.141Z,8.32
2022-10-11T22:59:53.259Z,8.26
2022-10-11T23:04:56.419Z,8.16
2022-10-11T23:09:58.998Z,8.19
2022-10-11T23:15:03.106Z,8.22
2022-10-11T23:20:07.036Z,8.15
2022-10-11T23:25:10.389Z,8.08
2022-10-11T23:30:15.413Z,7.97
2022-10-11T23:35:18.041Z,7.96
2022-10-11T23:40:20.662Z,7.90
2022-10-11T23:45:24.634Z,7.81
2022-10-11T23:50:27.262Z,7.79
2022-10-11T23:55:29.859Z,7.77
